LGKO Airport Information

Runway Information
Runway 14 Length 7841 ft width 148 ft
Elevation 412 ft Threshold 0 ft Heading 148
Runway 32 Length 7841 ft Width 148 ft
Elevation 373 ft Threshold 0 ft Heading 328
Airport Frequencies
Type A/G Name IPPOKRATIS Frequency 563.7 MHZ
Type APP Name APP Frequency 119.95 MHZ
Type ATIS Name ATIS Frequency 126.95 MHZ
Type TWR Name IPPOKRATIS Frequency 121.05 MHZ
Airport Navaids
Type VOR-DME Name Kos Frequency 109000 KHZ
Type NDB Name Kos Frequency 311 KHZ
Airport Weather Information & NOTAM
ADDS - METARS form results

(2254 UTC 17 January 2019)
Data provider http://aviationweather.gov/metar/data/
 
Forecast for: LGKO (KOS AIRPORT , GR)
Text: TAF LGKO 171700Z 1718/1818 VRB05KT 9999 FEW025
Forecast period: 1800 UTC 17 January 2019 to 0400 UTC 18 January 2019
Forecast type: FROM: standard forecast or significant change
Winds: variable direction winds at 6 MPH (5 knots; 2.6 m/s)
Visibility: 6 or more miles 10+ km)
Ceiling: at least 12,000 feet AGL
Clouds: few clouds at 2500 feet AGL
Weather: no significant weather forecast for this period
Text: BECMG 1804/1806 23012KT
Forecast period: 0400 to 1800 UTC 18 January 2019
Forecast type: BECOMING: Conditions expected to become as follows by 0600 UTC 18 January 2019
Winds: from the SW (230 degrees) at 14 MPH (12 knots; 6.2 m/s)
Visibility: 6 or more miles 10+ km)
Ceiling: at least 12,000 feet AGL
Clouds: few clouds at 2500 feet AGL
Weather: no significant weather forecast for this period